sensor_id;sensor_type;location;lat;lon;timestamp;P1;durP1;ratioP1;P2;durP2;ratioP2
26594;SDS011;14238;49.496;8.154;2023-03-01T00:01:59;14.40;;;11.80;;
26594;SDS011;14238;49.496;8.154;2023-03-01T00:04:24;15.03;;;12.73;;
26594;SDS011;14238;49.496;8.154;2023-03-01T00:06:50;15.90;;;12.67;;
26594;SDS011;14238;49.496;8.154;2023-03-01T00:09:16;14.47;;;12.97;;
26594;SDS011;14238;49.496;8.154;2023-03-01T00:11:42;14.17;;;12.67;;
26594;SDS011;14238;49.496;8.154;2023-03-01T00:14:08;17.10;;;12.57;;
26594;SDS011;14238;49.496;8.154;2023-03-01T00:16:35;17.73;;;13.20;;
26594;SDS011;14238;49.496;8.154;2023-03-01T00:19:04;17.13;;;11.97;;
26594;SDS011;14238;49.496;8.154;2023-03-01T00:21:31;17.00;;;13.03;;
26594;SDS011;14238;49.496;8.154;2023-03-01T00:23:58;16.83;;;13.33;;
26594;SDS011;14238;49.496;8.154;2023-03-01T00:26:24;16.57;;;13.23;;
26594;SDS011;14238;49.496;8.154;2023-03-01T00:28:51;15.97;;;13.63;;
26594;SDS011;14238;49.496;8.154;2023-03-01T00:31:19;16.90;;;13.93;;
26594;SDS011;14238;49.496;8.154;2023-03-01T00:33:46;15.10;;;12.20;;
26594;SDS011;14238;49.496;8.154;2023-03-01T00:36:12;17.47;;;13.63;;
26594;SDS011;14238;49.496;8.154;2023-03-01T00:38:41;15.80;;;12.97;;
26594;SDS011;14238;49.496;8.154;2023-03-01T00:41:08;15.67;;;12.93;;
26594;SDS011;14238;49.496;8.154;2023-03-01T00:43:35;15.70;;;12.70;;
26594;SDS011;14238;49.496;8.154;2023-03-01T00:46:10;14.97;;;13.33;;
26594;SDS011;14238;49.496;8.154;2023-03-01T00:48:41;17.03;;;13.83;;
26594;SDS011;14238;49.496;8.154;2023-03-01T00:51:08;15.47;;;13.30;;
26594;SDS011;14238;49.496;8.154;2023-03-01T00:53:35;16.03;;;14.23;;
26594;SDS011;14238;49.496;8.154;2023-03-01T00:56:02;15.10;;;13.50;;
26594;SDS011;14238;49.496;8.154;2023-03-01T00:58:29;15.40;;;13.40;;
26594;SDS011;14238;49.496;8.154;2023-03-01T01:00:54;21.17;;;14.23;;
26594;SDS011;14238;49.496;8.154;2023-03-01T01:03:20;17.73;;;13.03;;
26594;SDS011;14238;49.496;8.154;2023-03-01T01:05:49;17.57;;;13.30;;
26594;SDS011;14238;49.496;8.154;2023-03-01T01:08:16;17.73;;;14.53;;
26594;SDS011;14238;49.496;8.154;2023-03-01T01:10:43;17.30;;;13.80;;
26594;SDS011;14238;49.496;8.154;2023-03-01T01:13:09;18.20;;;14.53;;
26594;SDS011;14238;49.496;8.154;2023-03-01T01:15:35;17.50;;;13.97;;
26594;SDS011;14238;49.496;8.154;2023-03-01T01:18:01;17.13;;;14.60;;
26594;SDS011;14238;49.496;8.154;2023-03-01T01:20:27;18.90;;;14.00;;
26594;SDS011;14238;49.496;8.154;2023-03-01T01:22:52;14.93;;;12.80;;
26594;SDS011;14238;49.496;8.154;2023-03-01T01:25:18;20.10;;;15.37;;
26594;SDS011;14238;49.496;8.154;2023-03-01T01:27:44;16.27;;;14.17;;
26594;SDS011;14238;49.496;8.154;2023-03-01T01:30:10;21.90;;;15.77;;
26594;SDS011;14238;49.496;8.154;2023-03-01T01:32:36;19.33;;;14.57;;
26594;SDS011;14238;49.496;8.154;2023-03-01T01:35:01;15.00;;;12.87;;
26594;SDS011;14238;49.496;8.154;2023-03-01T01:37:27;20.90;;;15.40;;
26594;SDS011;14238;49.496;8.154;2023-03-01T01:39:56;20.93;;;16.57;;
26594;SDS011;14238;49.496;8.154;2023-03-01T01:42:24;16.67;;;13.73;;
26594;SDS011;14238;49.496;8.154;2023-03-01T01:45:15;17.33;;;14.53;;
26594;SDS011;14238;49.496;8.154;2023-03-01T01:47:54;15.87;;;13.47;;
26594;SDS011;14238;49.496;8.154;2023-03-01T01:50:23;17.97;;;14.10;;
26594;SDS011;14238;49.496;8.154;2023-03-01T01:52:50;23.23;;;15.30;;
26594;SDS011;14238;49.496;8.154;2023-03-01T01:55:21;15.53;;;13.13;;
26594;SDS011;14238;49.496;8.154;2023-03-01T01:57:53;16.30;;;13.90;;
26594;SDS011;14238;49.496;8.154;2023-03-01T02:00:27;18.80;;;14.03;;
26594;SDS011;14238;49.496;8.154;2023-03-01T02:03:03;16.73;;;13.60;;
26594;SDS011;14238;49.496;8.154;2023-03-01T02:08:05;18.73;;;14.40;;
26594;SDS011;14238;49.496;8.154;2023-03-01T02:10:33;20.00;;;13.90;;
26594;SDS011;14238;49.496;8.154;2023-03-01T02:13:00;16.30;;;14.60;;
26594;SDS011;14238;49.496;8.154;2023-03-01T02:15:26;16.77;;;13.90;;
26594;SDS011;14238;49.496;8.154;2023-03-01T02:17:56;16.80;;;14.67;;
26594;SDS011;14238;49.496;8.154;2023-03-01T02:22:51;15.87;;;12.93;;
26594;SDS011;14238;49.496;8.154;2023-03-01T02:30:41;17.10;;;14.10;;
26594;SDS011;14238;49.496;8.154;2023-03-01T02:33:28;21.83;;;14.30;;
26594;SDS011;14238;49.496;8.154;2023-03-01T02:35:57;14.97;;;12.40;;
26594;SDS011;14238;49.496;8.154;2023-03-01T02:38:25;18.80;;;14.73;;
26594;SDS011;14238;49.496;8.154;2023-03-01T02:40:51;18.00;;;13.33;;
26594;SDS011;14238;49.496;8.154;2023-03-01T02:43:18;15.47;;;13.23;;
26594;SDS011;14238;49.496;8.154;2023-03-01T02:45:49;17.33;;;13.50;;
26594;SDS011;14238;49.496;8.154;2023-03-01T02:48:16;18.03;;;14.10;;
26594;SDS011;14238;49.496;8.154;2023-03-01T02:50:45;17.70;;;13.17;;
26594;SDS011;14238;49.496;8.154;2023-03-01T02:53:35;18.77;;;13.43;;
26594;SDS011;14238;49.496;8.154;2023-03-01T02:56:04;18.87;;;15.00;;
26594;SDS011;14238;49.496;8.154;2023-03-01T02:58:30;18.63;;;15.70;;
26594;SDS011;14238;49.496;8.154;2023-03-01T03:00:56;21.20;;;15.53;;
26594;SDS011;14238;49.496;8.154;2023-03-01T03:03:21;18.97;;;15.20;;
26594;SDS011;14238;49.496;8.154;2023-03-01T03:05:47;16.10;;;14.03;;
26594;SDS011;14238;49.496;8.154;2023-03-01T03:08:13;19.33;;;15.00;;
26594;SDS011;14238;49.496;8.154;2023-03-01T03:10:41;20.30;;;14.40;;
26594;SDS011;14238;49.496;8.154;2023-03-01T03:13:11;18.43;;;15.80;;
26594;SDS011;14238;49.496;8.154;2023-03-01T03:15:38;17.10;;;14.47;;
26594;SDS011;14238;49.496;8.154;2023-03-01T03:18:08;19.03;;;14.80;;
26594;SDS011;14238;49.496;8.154;2023-03-01T03:20:39;18.57;;;14.93;;
26594;SDS011;14238;49.496;8.154;2023-03-01T03:23:06;19.17;;;15.83;;
26594;SDS011;14238;49.496;8.154;2023-03-01T03:25:32;20.90;;;16.00;;
26594;SDS011;14238;49.496;8.154;2023-03-01T03:27:57;18.50;;;15.23;;
26594;SDS011;14238;49.496;8.154;2023-03-01T03:30:27;18.57;;;14.10;;
26594;SDS011;14238;49.496;8.154;2023-03-01T03:32:55;21.33;;;16.07;;
26594;SDS011;14238;49.496;8.154;2023-03-01T03:37:55;23.20;;;17.00;;
26594;SDS011;14238;49.496;8.154;2023-03-01T03:40:29;22.40;;;17.00;;
26594;SDS011;14238;49.496;8.154;2023-03-01T03:42:59;19.47;;;14.07;;
26594;SDS011;14238;49.496;8.154;2023-03-01T03:45:24;19.33;;;15.13;;
26594;SDS011;14238;49.496;8.154;2023-03-01T03:47:50;18.37;;;15.50;;
26594;SDS011;14238;49.496;8.154;2023-03-01T03:50:16;20.70;;;16.33;;
26594;SDS011;14238;49.496;8.154;2023-03-01T03:52:42;17.87;;;14.40;;
26594;SDS011;14238;49.496;8.154;2023-03-01T03:55:08;20.50;;;15.53;;
26594;SDS011;14238;49.496;8.154;2023-03-01T03:57:39;20.20;;;15.23;;
26594;SDS011;14238;49.496;8.154;2023-03-01T04:00:06;21.70;;;15.67;;
26594;SDS011;14238;49.496;8.154;2023-03-01T04:02:40;18.97;;;15.70;;
26594;SDS011;14238;49.496;8.154;2023-03-01T04:05:06;20.03;;;14.80;;
26594;SDS011;14238;49.496;8.154;2023-03-01T04:07:34;23.07;;;16.73;;
26594;SDS011;14238;49.496;8.154;2023-03-01T04:10:01;18.70;;;14.70;;
26594;SDS011;14238;49.496;8.154;2023-03-01T04:12:28;19.60;;;16.30;;
26594;SDS011;14238;49.496;8.154;2023-03-01T04:14:53;19.67;;;15.47;;
26594;SDS011;14238;49.496;8.154;2023-03-01T04:17:19;23.50;;;17.00;;
26594;SDS011;14238;49.496;8.154;2023-03-01T04:19:44;21.80;;;15.30;;
26594;SDS011;14238;49.496;8.154;2023-03-01T04:22:13;26.87;;;15.97;;
26594;SDS011;14238;49.496;8.154;2023-03-01T04:24:43;18.73;;;15.07;;
26594;SDS011;14238;49.496;8.154;2023-03-01T04:27:09;18.10;;;14.73;;
26594;SDS011;14238;49.496;8.154;2023-03-01T04:29:35;19.60;;;15.70;;
26594;SDS011;14238;49.496;8.154;2023-03-01T04:32:00;22.90;;;15.93;;
26594;SDS011;14238;49.496;8.154;2023-03-01T04:34:26;20.87;;;16.30;;
26594;SDS011;14238;49.496;8.154;2023-03-01T04:36:52;18.60;;;13.93;;
26594;SDS011;14238;49.496;8.154;2023-03-01T04:39:17;20.80;;;15.23;;
26594;SDS011;14238;49.496;8.154;2023-03-01T04:41:43;23.60;;;15.60;;
26594;SDS011;14238;49.496;8.154;2023-03-01T04:44:08;22.10;;;15.30;;
26594;SDS011;14238;49.496;8.154;2023-03-01T04:46:34;21.43;;;15.70;;
26594;SDS011;14238;49.496;8.154;2023-03-01T04:49:01;21.60;;;16.10;;
26594;SDS011;14238;49.496;8.154;2023-03-01T04:51:27;21.40;;;16.40;;
26594;SDS011;14238;49.496;8.154;2023-03-01T04:53:53;20.43;;;14.97;;
26594;SDS011;14238;49.496;8.154;2023-03-01T04:56:19;24.20;;;16.37;;
26594;SDS011;14238;49.496;8.154;2023-03-01T04:58:45;20.40;;;16.10;;
26594;SDS011;14238;49.496;8.154;2023-03-01T05:01:12;18.10;;;15.40;;
26594;SDS011;14238;49.496;8.154;2023-03-01T05:03:43;20.70;;;16.03;;
26594;SDS011;14238;49.496;8.154;2023-03-01T05:06:09;23.60;;;16.93;;
26594;SDS011;14238;49.496;8.154;2023-03-01T05:08:36;23.23;;;15.53;;
26594;SDS011;14238;49.496;8.154;2023-03-01T05:11:02;21.30;;;16.67;;
26594;SDS011;14238;49.496;8.154;2023-03-01T05:13:28;21.50;;;15.60;;
26594;SDS011;14238;49.496;8.154;2023-03-01T05:15:55;20.83;;;16.20;;
26594;SDS011;14238;49.496;8.154;2023-03-01T05:18:25;22.20;;;15.20;;
26594;SDS011;14238;49.496;8.154;2023-03-01T05:20:53;19.13;;;16.17;;
26594;SDS011;14238;49.496;8.154;2023-03-01T05:23:21;23.53;;;16.67;;
26594;SDS011;14238;49.496;8.154;2023-03-01T05:25:47;19.43;;;14.27;;
26594;SDS011;14238;49.496;8.154;2023-03-01T05:28:14;20.57;;;16.63;;
26594;SDS011;14238;49.496;8.154;2023-03-01T05:30:40;23.60;;;17.43;;
26594;SDS011;14238;49.496;8.154;2023-03-01T05:33:05;23.77;;;16.97;;
26594;SDS011;14238;49.496;8.154;2023-03-01T05:35:38;18.40;;;14.43;;
26594;SDS011;14238;49.496;8.154;2023-03-01T05:38:04;22.03;;;16.70;;
26594;SDS011;14238;49.496;8.154;2023-03-01T05:40:29;19.77;;;16.80;;
26594;SDS011;14238;49.496;8.154;2023-03-01T05:42:58;19.40;;;16.53;;
26594;SDS011;14238;49.496;8.154;2023-03-01T05:45:24;19.20;;;15.37;;
26594;SDS011;14238;49.496;8.154;2023-03-01T05:47:50;23.33;;;15.83;;
26594;SDS011;14238;49.496;8.154;2023-03-01T05:50:18;18.43;;;15.03;;
26594;SDS011;14238;49.496;8.154;2023-03-01T05:53:00;20.57;;;15.37;;
26594;SDS011;14238;49.496;8.154;2023-03-01T05:55:31;24.67;;;17.50;;
26594;SDS011;14238;49.496;8.154;2023-03-01T05:58:00;23.90;;;17.90;;
26594;SDS011;14238;49.496;8.154;2023-03-01T06:00:28;24.93;;;17.60;;
26594;SDS011;14238;49.496;8.154;2023-03-01T06:02:55;23.90;;;16.57;;
26594;SDS011;14238;49.496;8.154;2023-03-01T06:05:21;19.67;;;15.10;;
26594;SDS011;14238;49.496;8.154;2023-03-01T06:07:47;20.23;;;16.63;;
26594;SDS011;14238;49.496;8.154;2023-03-01T06:10:13;21.53;;;16.40;;
26594;SDS011;14238;49.496;8.154;2023-03-01T06:12:39;19.43;;;16.67;;
26594;SDS011;14238;49.496;8.154;2023-03-01T06:15:06;23.07;;;16.97;;
26594;SDS011;14238;49.496;8.154;2023-03-01T06:17:34;18.10;;;14.60;;
26594;SDS011;14238;49.496;8.154;2023-03-01T06:20:03;20.10;;;16.70;;
26594;SDS011;14238;49.496;8.154;2023-03-01T06:22:30;22.30;;;16.83;;
26594;SDS011;14238;49.496;8.154;2023-03-01T06:24:55;18.90;;;14.90;;
26594;SDS011;14238;49.496;8.154;2023-03-01T06:27:21;19.97;;;15.60;;
26594;SDS011;14238;49.496;8.154;2023-03-01T06:29:46;19.03;;;15.40;;
26594;SDS011;14238;49.496;8.154;2023-03-01T06:32:12;21.67;;;16.27;;
26594;SDS011;14238;49.496;8.154;2023-03-01T06:34:37;20.53;;;16.30;;
26594;SDS011;14238;49.496;8.154;2023-03-01T06:37:03;24.83;;;17.17;;
26594;SDS011;14238;49.496;8.154;2023-03-01T06:39:30;22.23;;;17.97;;
26594;SDS011;14238;49.496;8.154;2023-03-01T06:41:56;22.70;;;17.60;;
26594;SDS011;14238;49.496;8.154;2023-03-01T06:44:22;27.00;;;18.80;;
26594;SDS011;14238;49.496;8.154;2023-03-01T06:46:49;24.00;;;17.60;;
26594;SDS011;14238;49.496;8.154;2023-03-01T06:49:14;22.60;;;16.53;;
26594;SDS011;14238;49.496;8.154;2023-03-01T06:51:41;24.50;;;16.90;;
26594;SDS011;14238;49.496;8.154;2023-03-01T06:54:07;20.00;;;17.17;;
26594;SDS011;14238;49.496;8.154;2023-03-01T06:56:32;21.50;;;17.60;;
26594;SDS011;14238;49.496;8.154;2023-03-01T06:58:58;20.97;;;16.73;;
26594;SDS011;14238;49.496;8.154;2023-03-01T07:01:24;23.60;;;17.90;;
26594;SDS011;14238;49.496;8.154;2023-03-01T07:03:50;19.77;;;15.97;;
26594;SDS011;14238;49.496;8.154;2023-03-01T07:06:15;20.50;;;16.10;;
26594;SDS011;14238;49.496;8.154;2023-03-01T07:08:42;21.77;;;16.87;;
26594;SDS011;14238;49.496;8.154;2023-03-01T07:11:08;20.53;;;15.50;;
26594;SDS011;14238;49.496;8.154;2023-03-01T07:13:34;22.00;;;17.47;;
26594;SDS011;14238;49.496;8.154;2023-03-01T07:15:59;19.93;;;16.30;;
26594;SDS011;14238;49.496;8.154;2023-03-01T07:18:26;20.03;;;17.33;;
26594;SDS011;14238;49.496;8.154;2023-03-01T07:20:52;21.70;;;17.43;;
26594;SDS011;14238;49.496;8.154;2023-03-01T07:23:17;23.57;;;18.27;;
26594;SDS011;14238;49.496;8.154;2023-03-01T07:25:43;23.60;;;18.30;;
26594;SDS011;14238;49.496;8.154;2023-03-01T07:28:09;22.67;;;18.50;;
26594;SDS011;14238;49.496;8.154;2023-03-01T07:30:34;23.40;;;18.37;;
26594;SDS011;14238;49.496;8.154;2023-03-01T07:33:00;24.67;;;17.80;;
26594;SDS011;14238;49.496;8.154;2023-03-01T07:35:26;22.40;;;17.77;;
26594;SDS011;14238;49.496;8.154;2023-03-01T07:37:52;20.00;;;16.83;;
26594;SDS011;14238;49.496;8.154;2023-03-01T07:40:18;24.43;;;18.70;;
26594;SDS011;14238;49.496;8.154;2023-03-01T07:42:44;20.77;;;18.27;;
26594;SDS011;14238;49.496;8.154;2023-03-01T07:45:09;22.83;;;17.50;;
26594;SDS011;14238;49.496;8.154;2023-03-01T07:47:35;22.97;;;18.50;;
26594;SDS011;14238;49.496;8.154;2023-03-01T07:50:01;23.43;;;18.93;;
26594;SDS011;14238;49.496;8.154;2023-03-01T07:52:28;23.83;;;17.93;;
26594;SDS011;14238;49.496;8.154;2023-03-01T07:54:55;20.67;;;16.93;;
26594;SDS011;14238;49.496;8.154;2023-03-01T07:57:21;22.77;;;17.57;;
26594;SDS011;14238;49.496;8.154;2023-03-01T07:59:46;25.07;;;17.93;;
26594;SDS011;14238;49.496;8.154;2023-03-01T08:02:12;23.20;;;16.93;;
26594;SDS011;14238;49.496;8.154;2023-03-01T08:04:37;23.63;;;17.10;;
26594;SDS011;14238;49.496;8.154;2023-03-01T08:07:04;25.60;;;17.90;;
26594;SDS011;14238;49.496;8.154;2023-03-01T08:09:31;20.57;;;15.80;;
26594;SDS011;14238;49.496;8.154;2023-03-01T08:11:59;23.23;;;18.17;;
26594;SDS011;14238;49.496;8.154;2023-03-01T08:14:24;22.50;;;17.80;;
26594;SDS011;14238;49.496;8.154;2023-03-01T08:16:50;22.00;;;17.50;;
26594;SDS011;14238;49.496;8.154;2023-03-01T08:19:15;24.20;;;18.77;;
26594;SDS011;14238;49.496;8.154;2023-03-01T08:21:41;22.20;;;18.80;;
26594;SDS011;14238;49.496;8.154;2023-03-01T08:24:07;22.37;;;17.57;;
26594;SDS011;14238;49.496;8.154;2023-03-01T08:26:35;22.40;;;18.07;;
26594;SDS011;14238;49.496;8.154;2023-03-01T08:29:01;22.80;;;17.77;;
26594;SDS011;14238;49.496;8.154;2023-03-01T08:31:29;23.33;;;18.37;;
26594;SDS011;14238;49.496;8.154;2023-03-01T08:33:56;22.83;;;18.17;;
26594;SDS011;14238;49.496;8.154;2023-03-01T08:36:25;22.70;;;17.80;;
26594;SDS011;14238;49.496;8.154;2023-03-01T08:38:52;22.40;;;18.03;;
26594;SDS011;14238;49.496;8.154;2023-03-01T08:41:18;20.57;;;17.00;;
26594;SDS011;14238;49.496;8.154;2023-03-01T08:43:43;21.60;;;17.93;;
26594;SDS011;14238;49.496;8.154;2023-03-01T08:46:09;20.53;;;17.30;;
26594;SDS011;14238;49.496;8.154;2023-03-01T08:48:36;23.80;;;18.03;;
26594;SDS011;14238;49.496;8.154;2023-03-01T08:51:08;23.20;;;18.93;;
26594;SDS011;14238;49.496;8.154;2023-03-01T08:53:38;20.90;;;17.50;;
26594;SDS011;14238;49.496;8.154;2023-03-01T08:56:05;20.57;;;16.60;;
26594;SDS011;14238;49.496;8.154;2023-03-01T08:58:30;23.77;;;17.60;;
26594;SDS011;14238;49.496;8.154;2023-03-01T09:00:56;25.50;;;19.30;;
26594;SDS011;14238;49.496;8.154;2023-03-01T09:03:23;19.10;;;17.10;;
26594;SDS011;14238;49.496;8.154;2023-03-01T09:05:49;23.30;;;17.73;;
26594;SDS011;14238;49.496;8.154;2023-03-01T09:08:16;21.97;;;18.23;;
26594;SDS011;14238;49.496;8.154;2023-03-01T09:10:41;25.20;;;17.90;;
26594;SDS011;14238;49.496;8.154;2023-03-01T09:13:07;20.50;;;16.73;;
26594;SDS011;14238;49.496;8.154;2023-03-01T09:15:33;21.37;;;17.03;;
26594;SDS011;14238;49.496;8.154;2023-03-01T09:17:59;25.17;;;18.63;;
26594;SDS011;14238;49.496;8.154;2023-03-01T09:20:25;18.63;;;15.43;;
26594;SDS011;14238;49.496;8.154;2023-03-01T09:22:50;23.03;;;17.17;;
26594;SDS011;14238;49.496;8.154;2023-03-01T09:25:16;24.20;;;18.10;;
26594;SDS011;14238;49.496;8.154;2023-03-01T09:27:41;21.93;;;18.10;;
26594;SDS011;14238;49.496;8.154;2023-03-01T09:30:07;23.57;;;17.80;;
26594;SDS011;14238;49.496;8.154;2023-03-01T09:32:33;20.90;;;18.17;;
26594;SDS011;14238;49.496;8.154;2023-03-01T09:34:59;20.80;;;17.27;;
26594;SDS011;14238;49.496;8.154;2023-03-01T09:37:33;19.97;;;17.63;;
26594;SDS011;14238;49.496;8.154;2023-03-01T09:40:02;19.90;;;17.20;;
26594;SDS011;14238;49.496;8.154;2023-03-01T09:42:32;20.33;;;18.23;;
26594;SDS011;14238;49.496;8.154;2023-03-01T09:45:02;20.40;;;18.30;;
26594;SDS011;14238;49.496;8.154;2023-03-01T09:47:32;20.93;;;18.73;;
26594;SDS011;14238;49.496;8.154;2023-03-01T09:52:33;20.90;;;18.70;;
26594;SDS011;14238;49.496;8.154;2023-03-01T09:55:07;21.07;;;19.00;;
26594;SDS011;14238;49.496;8.154;2023-03-01T09:57:36;21.07;;;18.97;;
26594;SDS011;14238;49.496;8.154;2023-03-01T10:03:16;20.13;;;18.23;;
26594;SDS011;14238;49.496;8.154;2023-03-01T10:11:17;21.97;;;18.20;;
26594;SDS011;14238;49.496;8.154;2023-03-01T10:13:51;20.63;;;18.53;;
26594;SDS011;14238;49.496;8.154;2023-03-01T10:16:48;20.10;;;18.00;;
26594;SDS011;14238;49.496;8.154;2023-03-01T10:19:38;20.33;;;18.30;;
26594;SDS011;14238;49.496;8.154;2023-03-01T10:22:26;20.50;;;18.60;;
26594;SDS011;14238;49.496;8.154;2023-03-01T10:24:54;19.80;;;17.90;;
26594;SDS011;14238;49.496;8.154;2023-03-01T10:27:26;21.33;;;19.03;;
26594;SDS011;14238;49.496;8.154;2023-03-01T10:30:09;20.40;;;18.40;;
26594;SDS011;14238;49.496;8.154;2023-03-01T10:32:54;20.27;;;18.10;;
26594;SDS011;14238;49.496;8.154;2023-03-01T10:35:21;19.57;;;17.63;;
26594;SDS011;14238;49.496;8.154;2023-03-01T10:38:02;20.50;;;18.47;;
26594;SDS011;14238;49.496;8.154;2023-03-01T10:40:33;20.03;;;18.10;;
26594;SDS011;14238;49.496;8.154;2023-03-01T10:43:01;20.70;;;18.60;;
26594;SDS011;14238;49.496;8.154;2023-03-01T10:53:26;19.93;;;18.00;;
26594;SDS011;14238;49.496;8.154;2023-03-01T10:56:02;21.27;;;19.10;;
26594;SDS011;14238;49.496;8.154;2023-03-01T10:58:33;20.73;;;18.60;;
26594;SDS011;14238;49.496;8.154;2023-03-01T11:01:02;21.90;;;19.90;;
26594;SDS011;14238;49.496;8.154;2023-03-01T11:03:29;20.90;;;18.80;;
26594;SDS011;14238;49.496;8.154;2023-03-01T11:06:04;21.33;;;19.23;;
26594;SDS011;14238;49.496;8.154;2023-03-01T11:08:46;18.90;;;17.10;;
26594;SDS011;14238;49.496;8.154;2023-03-01T11:14:16;21.63;;;19.43;;
26594;SDS011;14238;49.496;8.154;2023-03-01T11:16:49;21.77;;;18.93;;
26594;SDS011;14238;49.496;8.154;2023-03-01T11:19:30;22.10;;;19.70;;
26594;SDS011;14238;49.496;8.154;2023-03-01T11:24:46;21.70;;;19.60;;
26594;SDS011;14238;49.496;8.154;2023-03-01T11:27:46;22.13;;;19.77;;
26594;SDS011;14238;49.496;8.154;2023-03-01T11:30:18;21.43;;;19.20;;
26594;SDS011;14238;49.496;8.154;2023-03-01T11:35:42;22.87;;;19.10;;
26594;SDS011;14238;49.496;8.154;2023-03-01T11:38:24;21.87;;;19.50;;
26594;SDS011;14238;49.496;8.154;2023-03-01T11:40:58;23.53;;;21.40;;
26594;SDS011;14238;49.496;8.154;2023-03-01T11:46:38;21.77;;;19.50;;
26594;SDS011;14238;49.496;8.154;2023-03-01T11:54:46;21.57;;;19.20;;
26594;SDS011;14238;49.496;8.154;2023-03-01T12:00:05;20.10;;;18.13;;
26594;SDS011;14238;49.496;8.154;2023-03-01T12:05:50;21.50;;;19.50;;
26594;SDS011;14238;49.496;8.154;2023-03-01T12:08:20;23.37;;;21.07;;
26594;SDS011;14238;49.496;8.154;2023-03-01T12:11:06;21.13;;;18.93;;
26594;SDS011;14238;49.496;8.154;2023-03-01T12:19:33;19.13;;;17.23;;
26594;SDS011;14238;49.496;8.154;2023-03-01T12:24:51;19.50;;;17.50;;
26594;SDS011;14238;49.496;8.154;2023-03-01T12:35:58;20.93;;;18.90;;
26594;SDS011;14238;49.496;8.154;2023-03-01T12:50:03;22.03;;;19.73;;
26594;SDS011;14238;49.496;8.154;2023-03-01T12:52:39;21.90;;;19.33;;
26594;SDS011;14238;49.496;8.154;2023-03-01T12:55:18;23.37;;;21.00;;
26594;SDS011;14238;49.496;8.154;2023-03-01T13:00:38;23.17;;;20.83;;
26594;SDS011;14238;49.496;8.154;2023-03-01T13:03:53;21.47;;;19.47;;
26594;SDS011;14238;49.496;8.154;2023-03-01T13:09:55;21.17;;;19.07;;
26594;SDS011;14238;49.496;8.154;2023-03-01T13:12:48;21.97;;;19.77;;
26594;SDS011;14238;49.496;8.154;2023-03-01T13:23:13;21.03;;;18.90;;
26594;SDS011;14238;49.496;8.154;2023-03-01T13:31:00;21.33;;;17.77;;
26594;SDS011;14238;49.496;8.154;2023-03-01T13:35:56;20.70;;;18.90;;
26594;SDS011;14238;49.496;8.154;2023-03-01T13:41:11;18.63;;;15.93;;
26594;SDS011;14238;49.496;8.154;2023-03-01T13:43:39;18.30;;;16.40;;
26594;SDS011;14238;49.496;8.154;2023-03-01T13:46:17;23.87;;;18.10;;
26594;SDS011;14238;49.496;8.154;2023-03-01T13:48:47;18.23;;;16.63;;
26594;SDS011;14238;49.496;8.154;2023-03-01T13:51:15;18.03;;;15.53;;
26594;SDS011;14238;49.496;8.154;2023-03-01T13:53:49;18.27;;;16.57;;
26594;SDS011;14238;49.496;8.154;2023-03-01T13:56:17;18.63;;;16.73;;
26594;SDS011;14238;49.496;8.154;2023-03-01T14:01:25;16.03;;;14.53;;
26594;SDS011;14238;49.496;8.154;2023-03-01T14:03:59;16.50;;;14.90;;
26594;SDS011;14238;49.496;8.154;2023-03-01T14:06:27;17.53;;;15.73;;
26594;SDS011;14238;49.496;8.154;2023-03-01T14:11:49;18.60;;;16.80;;
26594;SDS011;14238;49.496;8.154;2023-03-01T14:14:56;16.90;;;15.50;;
26594;SDS011;14238;49.496;8.154;2023-03-01T14:18:23;17.00;;;15.20;;
26594;SDS011;14238;49.496;8.154;2023-03-01T14:20:31;17.13;;;15.53;;
26594;SDS011;14238;49.496;8.154;2023-03-01T14:23:02;17.30;;;15.60;;
26594;SDS011;14238;49.496;8.154;2023-03-01T14:25:37;16.60;;;14.97;;
26594;SDS011;14238;49.496;8.154;2023-03-01T14:28:10;16.80;;;15.20;;
26594;SDS011;14238;49.496;8.154;2023-03-01T14:30:45;18.07;;;14.90;;
26594;SDS011;14238;49.496;8.154;2023-03-01T14:33:19;15.30;;;13.83;;
26594;SDS011;14238;49.496;8.154;2023-03-01T14:35:56;15.47;;;14.00;;
26594;SDS011;14238;49.496;8.154;2023-03-01T14:41:13;14.90;;;13.40;;
26594;SDS011;14238;49.496;8.154;2023-03-01T14:43:44;14.40;;;13.00;;
26594;SDS011;14238;49.496;8.154;2023-03-01T14:46:55;14.13;;;12.83;;
26594;SDS011;14238;49.496;8.154;2023-03-01T14:51:28;14.13;;;12.77;;
26594;SDS011;14238;49.496;8.154;2023-03-01T14:53:54;19.17;;;13.77;;
26594;SDS011;14238;49.496;8.154;2023-03-01T14:56:20;15.17;;;13.50;;
26594;SDS011;14238;49.496;8.154;2023-03-01T14:58:46;15.10;;;13.60;;
26594;SDS011;14238;49.496;8.154;2023-03-01T15:01:16;14.27;;;12.87;;
26594;SDS011;14238;49.496;8.154;2023-03-01T15:03:49;15.30;;;13.77;;
26594;SDS011;14238;49.496;8.154;2023-03-01T15:06:20;16.27;;;14.60;;
26594;SDS011;14238;49.496;8.154;2023-03-01T15:08:49;14.70;;;13.20;;
26594;SDS011;14238;49.496;8.154;2023-03-01T15:11:24;15.30;;;13.73;;
26594;SDS011;14238;49.496;8.154;2023-03-01T15:13:53;15.73;;;14.07;;
26594;SDS011;14238;49.496;8.154;2023-03-01T15:18:54;14.87;;;13.37;;
26594;SDS011;14238;49.496;8.154;2023-03-01T15:26:43;13.80;;;12.40;;
26594;SDS011;14238;49.496;8.154;2023-03-01T15:29:19;13.77;;;12.37;;
26594;SDS011;14238;49.496;8.154;2023-03-01T15:32:01;15.53;;;13.27;;
26594;SDS011;14238;49.496;8.154;2023-03-01T15:34:38;13.87;;;12.50;;
26594;SDS011;14238;49.496;8.154;2023-03-01T15:37:04;13.10;;;11.70;;
26594;SDS011;14238;49.496;8.154;2023-03-01T15:42:03;12.67;;;11.57;;
26594;SDS011;14238;49.496;8.154;2023-03-01T15:44:32;13.47;;;12.07;;
26594;SDS011;14238;49.496;8.154;2023-03-01T15:46:59;13.10;;;11.80;;
26594;SDS011;14238;49.496;8.154;2023-03-01T15:49:30;14.10;;;12.47;;
26594;SDS011;14238;49.496;8.154;2023-03-01T15:52:03;12.93;;;11.63;;
26594;SDS011;14238;49.496;8.154;2023-03-01T15:54:30;12.47;;;11.33;;
26594;SDS011;14238;49.496;8.154;2023-03-01T15:56:56;13.53;;;12.23;;
26594;SDS011;14238;49.496;8.154;2023-03-01T15:59:21;13.67;;;12.07;;
26594;SDS011;14238;49.496;8.154;2023-03-01T16:01:47;14.80;;;12.77;;
26594;SDS011;14238;49.496;8.154;2023-03-01T16:04:14;14.07;;;12.67;;
26594;SDS011;14238;49.496;8.154;2023-03-01T16:06:49;13.87;;;12.43;;
26594;SDS011;14238;49.496;8.154;2023-03-01T16:09:19;13.90;;;12.53;;
26594;SDS011;14238;49.496;8.154;2023-03-01T16:11:46;12.57;;;11.30;;
26594;SDS011;14238;49.496;8.154;2023-03-01T16:14:12;13.97;;;12.63;;
26594;SDS011;14238;49.496;8.154;2023-03-01T16:16:37;12.97;;;11.67;;
26594;SDS011;14238;49.496;8.154;2023-03-01T16:19:03;14.43;;;13.03;;
26594;SDS011;14238;49.496;8.154;2023-03-01T16:21:28;13.10;;;11.70;;
26594;SDS011;14238;49.496;8.154;2023-03-01T16:23:54;13.30;;;12.07;;
26594;SDS011;14238;49.496;8.154;2023-03-01T16:26:19;13.13;;;11.83;;
26594;SDS011;14238;49.496;8.154;2023-03-01T16:28:45;13.03;;;11.77;;
26594;SDS011;14238;49.496;8.154;2023-03-01T16:31:11;13.10;;;11.80;;
26594;SDS011;14238;49.496;8.154;2023-03-01T16:33:37;15.80;;;12.03;;
26594;SDS011;14238;49.496;8.154;2023-03-01T16:36:09;13.00;;;11.70;;
26594;SDS011;14238;49.496;8.154;2023-03-01T16:38:37;13.87;;;12.47;;
26594;SDS011;14238;49.496;8.154;2023-03-01T16:41:03;14.00;;;12.60;;
26594;SDS011;14238;49.496;8.154;2023-03-01T16:43:29;13.23;;;11.93;;